Time;durP1;ratioP1;P1;durP2;ratioP2;P2;SDS_P1;SDS_P2;PMS_P1;PMS_P2;Temp;Humidity;BMP_temperature;BMP_pressure;BME280_temperature;BME280_humidity;BME280_pressure;Samples;Min_cycle;Max_cycle;Signal;HPM_P1;HPM_P2
2021/08/30 00:02:13;;;;;;;6.00;4.33;;;14.70;99.90;;;;;;5142244;27;20450;-83
2021/08/30 00:04:40;;;;;;;3.57;3.27;;;14.60;99.90;;;;;;5141802;27;20845;-84
2021/08/30 00:07:07;;;;;;;3.53;3.23;;;14.60;99.90;;;;;;5142048;27;20442;-84
2021/08/30 00:09:33;;;;;;;5.70;4.07;;;14.50;99.90;;;;;;5141189;27;20447;-84
2021/08/30 00:12:00;;;;;;;6.60;3.87;;;14.50;99.90;;;;;;5141508;27;20454;-83
2021/08/30 00:14:28;;;;;;;5.10;3.10;;;14.50;99.90;;;;;;5141166;27;20875;-84
2021/08/30 00:16:55;;;;;;;5.53;3.73;;;14.50;99.90;;;;;;5157677;27;20469;-83
2021/08/30 00:19:22;;;;;;;5.83;4.20;;;14.60;99.90;;;;;;5157941;27;20443;-83
2021/08/30 00:21:48;;;;;;;3.90;3.43;;;14.60;99.90;;;;;;5154513;27;20450;-83
2021/08/30 00:24:22;;;;;;;3.80;3.20;;;14.60;99.90;;;;;;5140965;27;20492;-84
2021/08/30 00:26:49;;;;;;;4.40;4.00;;;14.60;99.90;;;;;;5141165;27;20451;-84
2021/08/30 00:29:15;;;;;;;3.73;3.40;;;14.50;99.90;;;;;;5140013;27;20499;-85
2021/08/30 00:31:43;;;;;;;3.90;3.60;;;14.50;99.90;;;;;;5140480;27;20442;-84
2021/08/30 00:34:10;;;;;;;7.17;4.03;;;14.60;99.90;;;;;;5140064;27;20507;-84
2021/08/30 00:36:37;;;;;;;7.70;4.00;;;14.60;99.90;;;;;;5141031;27;20459;-84
2021/08/30 00:39:03;;;;;;;3.10;2.80;;;14.70;99.90;;;;;;5140600;27;20493;-84
2021/08/30 00:41:30;;;;;;;5.33;3.40;;;14.70;99.90;;;;;;5141278;27;20442;-85
2021/08/30 00:43:56;;;;;;;4.90;3.70;;;14.70;99.90;;;;;;5140302;27;20497;-85
2021/08/30 00:46:23;;;;;;;4.20;3.60;;;14.70;99.90;;;;;;5139993;27;20451;-85
2021/08/30 00:48:52;;;;;;;4.73;3.57;;;14.70;99.90;;;;;;5140169;27;20446;-84
2021/08/30 00:51:20;;;;;;;8.73;4.17;;;14.70;99.90;;;;;;5138964;27;20868;-84
2021/08/30 00:53:47;;;;;;;6.20;3.53;;;14.60;99.90;;;;;;5139148;27;20475;-85
2021/08/30 00:56:14;;;;;;;5.67;3.90;;;14.50;99.90;;;;;;5153070;27;20456;-82
2021/08/30 00:58:42;;;;;;;4.67;3.90;;;14.60;99.90;;;;;;5160374;27;20442;-83
2021/08/30 01:01:10;;;;;;;6.73;4.13;;;14.60;99.90;;;;;;5139584;27;20447;-84
2021/08/30 01:03:38;;;;;;;4.63;4.23;;;14.70;99.90;;;;;;5137708;27;20971;-84
2021/08/30 01:06:13;;;;;;;4.30;3.90;;;14.40;99.90;;;;;;5138092;27;20447;-83
2021/08/30 01:08:46;;;;;;;3.83;3.53;;;14.60;99.90;;;;;;5138847;27;20558;-84
2021/08/30 01:11:20;;;;;;;4.50;4.10;;;14.60;99.90;;;;;;5149881;27;20430;-83
2021/08/30 01:13:52;;;;;;;4.13;3.73;;;14.60;99.90;;;;;;5148176;27;20539;-84
2021/08/30 01:16:21;;;;;;;4.30;3.90;;;14.60;99.90;;;;;;5139642;27;20434;-84
2021/08/30 01:18:50;;;;;;;7.10;6.07;;;14.50;99.90;;;;;;5139247;27;20451;-84
2021/08/30 01:21:22;;;;;;;5.80;5.20;;;14.50;99.90;;;;;;5141457;27;20503;-84
2021/08/30 01:23:55;;;;;;;4.07;3.73;;;14.50;99.90;;;;;;5139943;27;20507;-84
2021/08/30 01:26:24;;;;;;;4.53;3.60;;;14.60;99.90;;;;;;5139015;27;20920;-84
2021/08/30 01:29:02;;;;;;;4.47;4.10;;;14.50;99.90;;;;;;5139054;27;20495;-84
2021/08/30 01:31:37;;;;;;;4.80;4.43;;;14.50;99.90;;;;;;5138704;27;20430;-83
2021/08/30 01:34:05;;;;;;;4.77;4.30;;;14.50;99.90;;;;;;5136727;27;20577;-84
2021/08/30 01:36:35;;;;;;;5.10;4.60;;;14.40;99.90;;;;;;5136509;27;20481;-83
2021/08/30 01:39:02;;;;;;;5.20;4.70;;;14.40;99.90;;;;;;5136987;27;20442;-84
2021/08/30 01:41:29;;;;;;;4.33;3.93;;;14.40;99.90;;;;;;5158063;27;20434;-83
2021/08/30 01:43:57;;;;;;;8.37;5.07;;;14.40;99.90;;;;;;5159692;27;20451;-82
2021/08/30 01:46:25;;;;;;;5.00;4.57;;;14.40;99.90;;;;;;5159818;27;20415;-81
2021/08/30 01:48:53;;;;;;;6.17;5.17;;;14.40;99.90;;;;;;5159784;27;20482;-82
2021/08/30 01:51:23;;;;;;;4.77;4.37;;;14.40;99.90;;;;;;5158728;27;20414;-83
2021/08/30 01:53:52;;;;;;;5.77;5.03;;;14.40;99.90;;;;;;5154641;27;20458;-83
2021/08/30 01:56:20;;;;;;;5.40;4.90;;;14.40;99.90;;;;;;5141621;27;20453;-83
2021/08/30 02:01:33;;;;;;;4.87;4.37;;;14.40;99.90;;;;;;5137525;27;20449;-84
2021/08/30 02:04:00;;;;;;;4.13;3.83;;;14.40;99.90;;;;;;5139121;27;20462;-84
2021/08/30 02:06:28;;;;;;;5.30;4.80;;;14.40;99.90;;;;;;5137347;27;20462;-83
2021/08/30 02:08:55;;;;;;;4.63;4.23;;;14.40;99.90;;;;;;5136682;27;20979;-83
2021/08/30 02:11:28;;;;;;;4.20;3.90;;;14.30;99.90;;;;;;5137948;27;20466;-83
2021/08/30 02:13:57;;;;;;;4.47;4.10;;;14.40;99.90;;;;;;5136780;27;20848;-83
2021/08/30 02:16:23;;;;;;;5.13;4.63;;;14.30;99.90;;;;;;5137357;27;20447;-83
2021/08/30 02:18:57;;;;;;;4.30;4.00;;;14.30;99.90;;;;;;5137598;27;21028;-83
2021/08/30 02:21:31;;;;;;;4.70;4.30;;;14.30;99.90;;;;;;5136838;27;20447;-83
2021/08/30 02:24:03;;;;;;;4.60;4.20;;;14.30;99.90;;;;;;5137395;27;20486;-83
2021/08/30 02:26:36;;;;;;;4.90;4.50;;;14.30;99.90;;;;;;5137628;27;20475;-83
2021/08/30 02:29:07;;;;;;;4.80;4.40;;;14.30;99.90;;;;;;5136829;27;20438;-83
2021/08/30 02:31:35;;;;;;;4.83;4.43;;;14.30;99.90;;;;;;5137767;27;20461;-84
2021/08/30 02:34:03;;;;;;;4.87;4.47;;;14.40;99.90;;;;;;5136967;27;20470;-84
2021/08/30 02:36:31;;;;;;;6.40;5.30;;;14.40;99.90;;;;;;5137335;27;20439;-84
2021/08/30 02:38:58;;;;;;;5.60;5.00;;;14.50;99.90;;;;;;5137506;27;20443;-84
2021/08/30 02:41:26;;;;;;;4.90;4.40;;;14.50;99.90;;;;;;5138244;27;20439;-84
2021/08/30 02:43:52;;;;;;;3.87;3.57;;;14.40;99.90;;;;;;5137839;27;20497;-84
2021/08/30 02:46:19;;;;;;;5.43;4.90;;;14.40;99.90;;;;;;5137800;27;20903;-84
2021/08/30 02:48:47;;;;;;;5.03;4.63;;;14.30;99.90;;;;;;5137613;28;20491;-83
2021/08/30 02:51:14;;;;;;;4.63;4.30;;;14.30;99.90;;;;;;5141883;27;20434;-83
2021/08/30 02:53:45;;;;;;;5.00;4.50;;;14.40;99.90;;;;;;5159710;27;20458;-83
2021/08/30 02:56:12;;;;;;;4.60;4.10;;;14.40;99.90;;;;;;5160000;27;20511;-83
2021/08/30 02:58:39;;;;;;;5.17;4.70;;;14.40;99.90;;;;;;5161573;27;20438;-82
2021/08/30 03:01:06;;;;;;;7.10;4.77;;;14.40;99.90;;;;;;5162204;27;20418;-83
2021/08/30 03:03:34;;;;;;;5.50;4.97;;;14.30;99.90;;;;;;5161908;27;20467;-82
2021/08/30 03:06:02;;;;;;;4.90;4.40;;;14.30;99.90;;;;;;5162361;27;20442;-82
2021/08/30 03:08:29;;;;;;;5.40;4.90;;;14.30;99.90;;;;;;5162052;27;20426;-82
2021/08/30 03:10:59;;;;;;;5.67;5.17;;;14.30;99.90;;;;;;5156432;27;20443;-84
2021/08/30 03:13:28;;;;;;;4.23;3.83;;;14.30;99.90;;;;;;5143518;27;20983;-83
2021/08/30 03:15:55;;;;;;;5.90;5.30;;;14.40;99.90;;;;;;5142816;27;20486;-83
2021/08/30 03:18:22;;;;;;;5.70;4.90;;;14.30;99.90;;;;;;5142847;27;20438;-83
2021/08/30 03:20:51;;;;;;;5.73;5.10;;;14.30;99.90;;;;;;5142822;27;20446;-83
2021/08/30 03:23:18;;;;;;;7.13;5.10;;;14.20;99.90;;;;;;5142052;27;21038;-83
2021/08/30 03:25:45;;;;;;;7.93;5.87;;;14.30;99.90;;;;;;5161975;27;20475;-82
2021/08/30 03:28:14;;;;;;;5.30;4.80;;;14.30;99.90;;;;;;5149889;27;20431;-83
2021/08/30 03:30:41;;;;;;;6.10;5.50;;;14.30;99.90;;;;;;5152836;27;20442;-83
2021/08/30 03:33:09;;;;;;;5.70;5.10;;;14.30;99.90;;;;;;5142983;27;20458;-83
2021/08/30 03:35:36;;;;;;;5.47;4.97;;;14.30;99.90;;;;;;5139269;27;20517;-83
2021/08/30 03:38:03;;;;;;;5.07;4.57;;;14.30;99.90;;;;;;5139395;27;20766;-83
2021/08/30 03:40:31;;;;;;;5.73;5.13;;;14.20;99.90;;;;;;5139732;27;20487;-83
2021/08/30 03:42:59;;;;;;;7.50;6.70;;;14.20;99.90;;;;;;5140249;27;20523;-83
2021/08/30 03:45:28;;;;;;;6.20;5.60;;;14.30;99.90;;;;;;5140250;27;20469;-83
2021/08/30 03:47:56;;;;;;;6.27;5.27;;;14.20;99.90;;;;;;5141693;27;20442;-83
2021/08/30 03:50:23;;;;;;;5.23;4.57;;;14.30;99.90;;;;;;5139868;27;20476;-83
2021/08/30 03:52:50;;;;;;;6.40;5.33;;;14.20;99.90;;;;;;5139935;27;20540;-83
2021/08/30 03:55:17;;;;;;;5.60;5.13;;;14.20;99.90;;;;;;5140652;27;20483;-83
2021/08/30 03:57:43;;;;;;;5.03;4.53;;;14.30;99.90;;;;;;5140615;27;20522;-83
2021/08/30 04:00:11;;;;;;;5.03;4.63;;;14.30;99.90;;;;;;5139994;27;20450;-83
2021/08/30 04:02:41;;;;;;;5.87;4.87;;;14.30;99.90;;;;;;5139425;27;21006;-83
2021/08/30 04:05:16;;;;;;;6.53;5.90;;;14.30;99.90;;;;;;5140507;27;20470;-83
2021/08/30 04:07:43;;;;;;;6.20;5.60;;;14.30;99.90;;;;;;5140700;27;20521;-83
2021/08/30 04:10:10;;;;;;;6.73;6.00;;;14.30;99.90;;;;;;5150914;27;20449;-82
2021/08/30 04:12:37;;;;;;;5.77;5.27;;;14.30;99.90;;;;;;5154112;27;20474;-83
2021/08/30 04:15:05;;;;;;;5.73;4.83;;;14.30;99.90;;;;;;5140914;27;20474;-83
2021/08/30 04:17:32;;;;;;;5.93;5.27;;;14.30;99.90;;;;;;5140037;27;20959;-83
2021/08/30 04:19:59;;;;;;;5.57;5.07;;;14.30;99.90;;;;;;5140380;27;21002;-83
2021/08/30 04:22:26;;;;;;;7.10;6.40;;;14.30;99.90;;;;;;5139936;27;20973;-83
2021/08/30 04:24:53;;;;;;;6.00;5.43;;;14.30;99.90;;;;;;5139939;27;20920;-83
2021/08/30 04:27:19;;;;;;;6.00;5.27;;;14.30;99.90;;;;;;5139736;27;20929;-83
2021/08/30 04:29:46;;;;;;;6.60;6.00;;;14.30;99.90;;;;;;5175181;22;20490;-85
2021/08/30 04:32:13;;;;;;;6.30;5.70;;;14.30;99.90;;;;;;5146034;27;20435;-85
2021/08/30 04:34:41;;;;;;;7.20;5.63;;;14.30;99.90;;;;;;5149510;27;20801;-86
2021/08/30 04:37:10;;;;;;;8.00;6.93;;;14.30;99.90;;;;;;5145506;27;20790;-86
2021/08/30 04:39:36;;;;;;;9.20;6.97;;;14.30;99.90;;;;;;5140042;27;20467;-86
2021/08/30 04:42:05;;;;;;;8.07;6.37;;;14.30;99.90;;;;;;5140317;27;20478;-86
2021/08/30 04:44:32;;;;;;;8.77;7.17;;;14.40;99.90;;;;;;5139868;27;20446;-86
2021/08/30 04:47:00;;;;;;;11.97;8.07;;;14.40;99.90;;;;;;5142334;27;20442;-86
2021/08/30 04:49:26;;;;;;;10.57;9.07;;;14.30;99.90;;;;;;5139462;27;20466;-86
2021/08/30 04:51:53;;;;;;;9.90;8.90;;;14.30;99.90;;;;;;5140268;27;20474;-86
2021/08/30 04:54:21;;;;;;;10.27;8.50;;;14.30;99.90;;;;;;5140119;27;20473;-86
2021/08/30 04:56:48;;;;;;;11.20;8.67;;;14.40;99.90;;;;;;5139664;27;20546;-86
2021/08/30 04:59:15;;;;;;;11.87;8.10;;;14.40;99.90;;;;;;5139830;27;20462;-86
2021/08/30 05:01:41;;;;;;;9.87;8.00;;;14.40;99.90;;;;;;5140036;27;20468;-86
2021/08/30 05:04:08;;;;;;;9.97;7.60;;;14.40;99.90;;;;;;5146091;27;20437;-86
2021/08/30 05:06:37;;;;;;;11.33;6.97;;;14.40;99.90;;;;;;5158310;27;20435;-85
2021/08/30 05:09:04;;;;;;;11.97;8.43;;;14.40;99.90;;;;;;5158789;27;20458;-85
2021/08/30 05:11:32;;;;;;;13.03;9.33;;;14.30;99.90;;;;;;5157936;27;20461;-85
2021/08/30 05:13:59;;;;;;;11.10;8.40;;;14.40;99.90;;;;;;5148458;27;20499;-85
2021/08/30 05:16:26;;;;;;;10.37;8.80;;;14.40;99.90;;;;;;5139297;27;20478;-85
2021/08/30 05:18:53;;;;;;;14.00;10.03;;;14.40;99.90;;;;;;5140057;27;20517;-85
2021/08/30 05:21:20;;;;;;;12.33;8.67;;;14.50;99.90;;;;;;5140039;27;20453;-86
2021/08/30 05:23:46;;;;;;;10.93;8.60;;;14.50;99.90;;;;;;5140529;27;20443;-85
2021/08/30 05:26:13;;;;;;;11.87;9.20;;;14.50;99.90;;;;;;5140384;27;20981;-85
2021/08/30 05:28:43;;;;;;;14.20;10.03;;;14.60;99.90;;;;;;5154129;27;20458;-85
2021/08/30 05:31:14;;;;;;;13.63;8.83;;;14.60;99.90;;;;;;5159479;27;20426;-85
2021/08/30 05:33:41;;;;;;;11.43;8.77;;;14.50;99.90;;;;;;5159043;27;20450;-86
2021/08/30 05:36:12;;;;;;;12.27;8.30;;;14.50;99.90;;;;;;5158902;27;20474;-85
2021/08/30 05:38:42;;;;;;;11.87;9.00;;;14.50;99.90;;;;;;5157960;27;20465;-85
2021/08/30 05:41:09;;;;;;;12.40;8.20;;;14.50;99.90;;;;;;5157589;27;20455;-85
2021/08/30 05:43:35;;;;;;;12.23;9.00;;;14.60;99.90;;;;;;5155500;27;20438;-86
2021/08/30 05:46:03;;;;;;;12.13;8.27;;;14.60;99.90;;;;;;5155194;27;20448;-85
2021/08/30 05:48:30;;;;;;;11.33;8.10;;;14.60;99.90;;;;;;5156062;27;20463;-84
2021/08/30 05:50:56;;;;;;;14.70;8.70;;;14.70;99.90;;;;;;5154537;27;20449;-85
2021/08/30 05:53:23;;;;;;;11.37;8.23;;;14.60;99.90;;;;;;5153439;27;20550;-85
2021/08/30 05:55:50;;;;;;;14.60;9.50;;;14.70;99.90;;;;;;5153391;27;20504;-85
2021/08/30 05:58:16;;;;;;;10.83;8.27;;;14.70;99.90;;;;;;5154680;27;20463;-85
2021/08/30 06:00:43;;;;;;;13.40;8.90;;;14.70;99.90;;;;;;5152531;27;20434;-85
2021/08/30 06:03:11;;;;;;;14.20;9.90;;;14.70;99.90;;;;;;5154830;27;20473;-85
2021/08/30 06:05:37;;;;;;;16.17;10.13;;;14.70;99.90;;;;;;5156542;27;20507;-86
2021/08/30 06:08:05;;;;;;;15.27;9.70;;;14.70;99.90;;;;;;5152162;27;20458;-85
2021/08/30 06:10:31;;;;;;;12.97;9.77;;;14.00;99.90;;;;;;5153802;27;20468;-85
2021/08/30 06:12:58;;;;;;;13.07;9.13;;;14.70;99.90;;;;;;5154396;27;20472;-85
2021/08/30 06:15:25;;;;;;;22.30;15.10;;;14.70;99.90;;;;;;5155159;27;20439;-86
2021/08/30 06:17:51;;;;;;;20.17;11.07;;;15.10;99.90;;;;;;5153015;27;20944;-84
2021/08/30 06:20:19;;;;;;;14.70;9.43;;;14.90;99.90;;;;;;5148182;27;20928;-85
2021/08/30 06:22:46;;;;;;;18.47;11.53;;;14.90;99.90;;;;;;5142217;27;20467;-85
2021/08/30 06:25:13;;;;;;;14.40;10.60;;;14.90;99.90;;;;;;5140425;27;20520;-85
2021/08/30 06:27:39;;;;;;;15.30;9.87;;;15.00;99.90;;;;;;5140073;27;20409;-85
2021/08/30 06:30:07;;;;;;;19.73;11.97;;;15.00;99.90;;;;;;5140238;27;20497;-85
2021/08/30 06:32:33;;;;;;;15.37;10.57;;;15.00;99.90;;;;;;5139647;27;20577;-85
2021/08/30 06:35:00;;;;;;;38.13;23.80;;;14.90;99.90;;;;;;5139439;27;20423;-85
2021/08/30 06:37:28;;;;;;;20.27;13.80;;;15.00;99.90;;;;;;5140911;27;20902;-85
2021/08/30 06:39:54;;;;;;;16.67;11.00;;;15.10;99.90;;;;;;5142503;27;20469;-85
2021/08/30 06:42:21;;;;;;;23.10;13.50;;;15.10;99.90;;;;;;5140644;27;20793;-86
2021/08/30 06:44:50;;;;;;;19.53;13.10;;;15.10;99.90;;;;;;5139199;27;20434;-85
2021/08/30 06:47:17;;;;;;;19.77;13.97;;;15.20;99.90;;;;;;5142175;27;20948;-85
2021/08/30 06:49:43;;;;;;;18.20;12.97;;;14.90;99.90;;;;;;5138783;28;20470;-86
2021/08/30 06:52:10;;;;;;;23.43;14.57;;;15.10;99.90;;;;;;5139898;28;20438;-86
2021/08/30 06:54:38;;;;;;;24.60;14.50;;;15.20;99.90;;;;;;5139205;28;20472;-86
2021/08/30 06:57:05;;;;;;;24.10;17.07;;;15.20;99.90;;;;;;5139118;28;20481;-86
2021/08/30 06:59:31;;;;;;;23.33;16.57;;;15.20;99.90;;;;;;5138640;28;20973;-85
2021/08/30 07:01:58;;;;;;;25.57;15.77;;;15.20;99.90;;;;;;5139517;28;20503;-86
2021/08/30 07:04:25;;;;;;;21.47;15.40;;;15.20;99.90;;;;;;5139050;28;20468;-86
2021/08/30 07:06:51;;;;;;;26.53;18.10;;;15.30;99.90;;;;;;5138690;28;20443;-85
2021/08/30 07:09:18;;;;;;;27.93;16.57;;;15.30;99.90;;;;;;5139179;28;20474;-88
2021/08/30 07:11:47;;;;;;;20.57;14.60;;;15.40;99.90;;;;;;5138868;28;20511;-86
2021/08/30 07:14:14;;;;;;;23.23;16.33;;;15.40;99.90;;;;;;5138696;28;20452;-81
2021/08/30 07:16:41;;;;;;;24.13;16.40;;;15.40;99.90;;;;;;5141309;28;20503;-85
2021/08/30 07:19:07;;;;;;;27.33;15.77;;;15.40;99.90;;;;;;5139088;28;20558;-83
2021/08/30 07:21:34;;;;;;;22.97;15.27;;;14.90;99.90;;;;;;5142702;28;20481;-87
2021/08/30 07:24:03;;;;;;;22.40;15.57;;;15.40;99.90;;;;;;5144008;28;20487;-90
2021/08/30 07:26:30;;;;;;;18.30;13.87;;;15.30;99.90;;;;;;5143560;28;20502;-86
2021/08/30 07:28:59;;;;;;;20.60;14.37;;;15.40;99.90;;;;;;5140677;28;20481;-86
2021/08/30 07:31:26;;;;;;;18.23;14.37;;;15.40;99.90;;;;;;5138726;28;21005;-86
2021/08/30 07:33:53;;;;;;;19.30;13.77;;;15.10;99.90;;;;;;5140904;28;20443;-86
2021/08/30 07:36:20;;;;;;;21.00;14.50;;;15.30;99.90;;;;;;5140703;28;20481;-85
2021/08/30 07:38:50;;;;;;;19.53;14.70;;;15.50;99.90;;;;;;5143690;27;20523;-80
2021/08/30 07:41:16;;;;;;;24.73;17.90;;;15.90;99.90;;;;;;5144855;27;20488;-81
2021/08/30 07:43:43;;;;;;;17.50;11.73;;;15.60;99.90;;;;;;5144199;27;20527;-80
2021/08/30 07:46:12;;;;;;;14.57;12.10;;;15.60;99.90;;;;;;5144232;27;20810;-82
2021/08/30 07:48:38;;;;;;;17.87;11.73;;;15.80;99.90;;;;;;5147543;27;20546;-83
2021/08/30 07:51:05;;;;;;;17.10;12.77;;;15.70;99.90;;;;;;5146808;27;20449;-82
2021/08/30 07:53:31;;;;;;;16.17;11.50;;;15.70;99.90;;;;;;5143994;27;20476;-81
2021/08/30 07:56:00;;;;;;;18.97;13.13;;;15.70;99.90;;;;;;5144640;27;20442;-82
2021/08/30 07:58:30;;;;;;;16.80;11.17;;;15.70;99.90;;;;;;5143845;27;20462;-80
2021/08/30 08:00:59;;;;;;;17.17;12.60;;;15.70;99.90;;;;;;5144331;27;20434;-82
2021/08/30 08:03:30;;;;;;;14.83;11.83;;;15.60;99.90;;;;;;5144130;27;20446;-80
2021/08/30 08:05:59;;;;;;;14.73;10.37;;;15.70;99.90;;;;;;5142389;27;20442;-80
2021/08/30 08:08:25;;;;;;;15.53;11.03;;;15.60;99.90;;;;;;5148295;27;20461;-85
2021/08/30 08:10:53;;;;;;;15.40;11.03;;;15.70;99.90;;;;;;5155994;27;20439;-84
2021/08/30 08:13:20;;;;;;;17.67;11.83;;;15.70;99.90;;;;;;5155306;27;20438;-84
2021/08/30 08:15:49;;;;;;;19.83;12.43;;;15.70;99.90;;;;;;5153791;27;20448;-84
2021/08/30 08:18:16;;;;;;;14.73;10.87;;;15.70;99.90;;;;;;5154789;27;20458;-84
2021/08/30 08:20:43;;;;;;;14.93;10.93;;;15.70;99.90;;;;;;5154917;27;20468;-84
2021/08/30 08:23:10;;;;;;;16.13;10.50;;;15.80;99.90;;;;;;5155290;27;20445;-84
2021/08/30 08:25:37;;;;;;;13.63;11.00;;;15.90;99.90;;;;;;5151130;27;20434;-80
2021/08/30 08:28:05;;;;;;;16.13;10.53;;;16.00;99.90;;;;;;5155130;27;20491;-82
2021/08/30 08:30:33;;;;;;;12.87;10.37;;;16.10;99.90;;;;;;5156656;27;20423;-83
2021/08/30 08:33:01;;;;;;;15.00;10.97;;;15.90;99.90;;;;;;5153878;27;20442;-84
2021/08/30 08:35:28;;;;;;;15.50;11.00;;;16.00;99.90;;;;;;5146309;27;20435;-85
2021/08/30 08:37:57;;;;;;;18.60;12.57;;;16.00;99.90;;;;;;5151839;27;20454;-85
2021/08/30 08:40:23;;;;;;;15.83;11.73;;;15.20;99.90;;;;;;5161416;27;20442;-83
2021/08/30 08:42:50;;;;;;;13.47;9.83;;;15.90;99.90;;;;;;5160533;27;20908;-84
2021/08/30 08:45:18;;;;;;;12.27;10.00;;;15.80;99.90;;;;;;5155221;27;20449;-85
2021/08/30 08:47:45;;;;;;;12.63;10.00;;;15.40;99.90;;;;;;5143524;27;20506;-86
2021/08/30 08:50:13;;;;;;;14.83;10.30;;;15.90;99.90;;;;;;5142283;27;20957;-86
2021/08/30 08:52:42;;;;;;;16.73;10.00;;;15.70;99.90;;;;;;5140782;27;20434;-87
2021/08/30 08:55:11;;;;;;;12.93;9.07;;;15.80;99.90;;;;;;5141438;27;20937;-86
2021/08/30 08:57:38;;;;;;;14.27;10.00;;;16.30;99.90;;;;;;5144258;27;20483;-86
2021/08/30 09:00:07;;;;;;;11.57;9.50;;;15.90;99.90;;;;;;5149974;27;20480;-86
2021/08/30 09:02:34;;;;;;;14.83;10.10;;;15.80;99.90;;;;;;5154399;27;20438;-86
2021/08/30 09:05:02;;;;;;;13.43;9.60;;;16.00;99.90;;;;;;5148959;27;20442;-86
2021/08/30 09:07:34;;;;;;;9.70;8.27;;;15.80;99.90;;;;;;5145263;27;20422;-86
2021/08/30 09:10:01;;;;;;;10.80;8.23;;;15.90;99.90;;;;;;5146040;27;20474;-86
2021/08/30 09:12:29;;;;;;;9.23;7.70;;;15.90;99.90;;;;;;5160185;27;20439;-85
2021/08/30 09:14:56;;;;;;;13.93;9.83;;;15.80;99.90;;;;;;5160999;27;20439;-85
2021/08/30 09:17:23;;;;;;;12.57;9.60;;;15.80;99.90;;;;;;5160086;27;20486;-85
2021/08/30 09:19:54;;;;;;;18.07;14.53;;;15.80;99.90;;;;;;5147619;27;20465;-86
2021/08/30 09:22:29;;;;;;;11.33;9.43;;;15.70;99.90;;;;;;5143858;27;20476;-86
2021/08/30 09:25:04;;;;;;;9.60;8.00;;;15.90;99.90;;;;;;5143088;27;20430;-86
2021/08/30 09:27:36;;;;;;;10.20;8.33;;;15.80;99.90;;;;;;5142575;27;20423;-86
2021/08/30 09:30:05;;;;;;;12.00;10.17;;;15.50;99.90;;;;;;5139611;27;20713;-87
2021/08/30 09:32:34;;;;;;;11.13;9.80;;;15.90;99.90;;;;;;5140195;27;20499;-87
2021/08/30 09:35:02;;;;;;;13.00;9.87;;;15.90;99.90;;;;;;5141617;27;20438;-86
2021/08/30 09:37:29;;;;;;;11.47;10.27;;;16.00;99.90;;;;;;5140668;27;20483;-85
2021/08/30 09:39:57;;;;;;;16.50;13.93;;;15.90;99.90;;;;;;5141516;27;20505;-86
2021/08/30 09:42:24;;;;;;;18.30;13.47;;;16.00;99.90;;;;;;5141064;27;20442;-87
2021/08/30 09:44:54;;;;;;;27.27;21.07;;;16.00;99.90;;;;;;5141643;27;20442;-86
2021/08/30 09:47:22;;;;;;;13.67;11.37;;;16.10;99.90;;;;;;5141670;27;20463;-87
2021/08/30 09:49:49;;;;;;;17.17;10.90;;;16.00;99.90;;;;;;5142130;27;20467;-85
2021/08/30 09:52:16;;;;;;;12.43;9.80;;;16.10;99.90;;;;;;5143148;27;20937;-86
2021/08/30 09:54:43;;;;;;;10.53;9.40;;;16.10;99.90;;;;;;5146351;27;20438;-87
2021/08/30 09:57:11;;;;;;;9.80;8.30;;;15.60;99.90;;;;;;5158949;27;21003;-86
2021/08/30 09:59:38;;;;;;;11.80;9.07;;;16.00;99.90;;;;;;5157735;27;20447;-86
2021/08/30 10:02:08;;;;;;;9.83;8.83;;;15.90;99.90;;;;;;5157711;27;20427;-85
2021/08/30 10:04:34;;;;;;;10.77;9.63;;;17.10;99.90;;;;;;5159247;27;20430;-86
2021/08/30 10:07:02;;;;;;;11.93;10.70;;;15.90;99.90;;;;;;5160373;27;20423;-85
2021/08/30 10:09:30;;;;;;;12.30;10.40;;;16.10;99.90;;;;;;5157961;27;20467;-86
2021/08/30 10:11:56;;;;;;;13.27;11.50;;;16.20;99.90;;;;;;5143308;27;20442;-86
2021/08/30 10:14:24;;;;;;;24.80;18.50;;;16.10;99.90;;;;;;5143471;27;20941;-86
2021/08/30 10:16:52;;;;;;;12.20;10.90;;;15.80;99.90;;;;;;5141965;27;20508;-86
2021/08/30 10:19:28;;;;;;;9.77;8.43;;;16.30;99.90;;;;;;5141883;27;20492;-86
2021/08/30 10:21:55;;;;;;;9.53;8.60;;;16.40;99.90;;;;;;5142278;27;20452;-86
2021/08/30 10:24:22;;;;;;;10.20;8.50;;;16.60;99.90;;;;;;5140808;27;20468;-86
2021/08/30 10:26:50;;;;;;;12.40;8.73;;;16.30;99.90;;;;;;5144277;27;20443;-86
2021/08/30 10:29:19;;;;;;;10.33;8.53;;;16.60;99.90;;;;;;5157862;22;20484;-82
2021/08/30 10:32:02;;;;;;;8.63;7.77;;;16.50;99.90;;;;;;5117521;28;20817;-82
2021/08/30 10:34:39;;;;;;;9.83;8.50;;;16.70;99.90;;;;;;5118409;28;20434;-82
2021/08/30 10:37:20;;;;;;;10.20;9.20;;;16.50;99.90;;;;;;5117549;28;20470;-82
2021/08/30 10:39:51;;;;;;;10.73;8.40;;;16.60;99.90;;;;;;5133511;27;20507;-82
2021/08/30 10:42:18;;;;;;;10.87;9.13;;;;;;;;;;5138891;27;20446;-82
2021/08/30 10:44:54;;;;;;;8.93;7.93;;;16.50;99.90;;;;;;5142832;27;20474;-82
2021/08/30 10:47:24;;;;;;;12.03;7.87;;;16.50;99.90;;;;;;5155243;27;20430;-81
2021/08/30 10:49:54;;;;;;;10.13;9.13;;;16.60;99.90;;;;;;5156203;28;20514;-81
2021/08/30 10:52:21;;;;;;;9.93;8.93;;;16.50;99.90;;;;;;5148352;28;20434;-83
2021/08/30 10:54:52;;;;;;;8.10;7.30;;;16.30;99.90;;;;;;5140237;28;20446;-82
2021/08/30 10:57:19;;;;;;;10.77;8.17;;;16.50;99.90;;;;;;5139714;28;20523;-83
2021/08/30 10:59:57;;;;;;;10.00;8.97;;;16.60;99.90;;;;;;5139396;28;20474;-82
2021/08/30 11:02:35;;;;;;;8.93;8.10;;;16.50;99.90;;;;;;5139119;28;20423;-82
2021/08/30 11:05:03;;;;;;;8.50;7.40;;;16.70;99.90;;;;;;5156439;28;20423;-82
2021/08/30 11:07:30;;;;;;;7.87;7.17;;;16.70;99.90;;;;;;5157647;27;20435;-82
2021/08/30 11:09:57;;;;;;;8.60;7.47;;;16.70;99.90;;;;;;5157904;27;20446;-82
2021/08/30 11:12:24;;;;;;;8.97;6.77;;;16.70;99.90;;;;;;5157486;27;20442;-82
2021/08/30 11:14:55;;;;;;;9.50;6.70;;;16.70;99.90;;;;;;5161023;27;20423;-82
2021/08/30 11:17:26;;;;;;;7.13;6.43;;;16.70;99.90;;;;;;5148171;27;20953;-82
2021/08/30 11:19:55;;;;;;;8.00;7.20;;;16.80;99.90;;;;;;5153792;27;20463;-81
2021/08/30 11:22:23;;;;;;;6.80;6.10;;;16.80;99.90;;;;;;5140976;27;20452;-81
2021/08/30 11:24:50;;;;;;;7.00;6.33;;;16.80;99.90;;;;;;5141138;27;20452;-81
2021/08/30 11:27:20;;;;;;;7.07;6.33;;;16.90;99.90;;;;;;5140683;27;20442;-81
2021/08/30 11:29:49;;;;;;;6.83;6.03;;;16.90;99.90;;;;;;5140157;27;20988;-82
2021/08/30 11:32:16;;;;;;;6.93;6.23;;;16.90;99.90;;;;;;5139856;27;20454;-81
2021/08/30 11:34:44;;;;;;;5.90;5.30;;;16.90;99.90;;;;;;5141666;27;20499;-82
2021/08/30 11:37:12;;;;;;;7.20;6.50;;;16.90;99.90;;;;;;5142568;27;20471;-82
2021/08/30 11:39:42;;;;;;;8.17;7.37;;;16.90;99.90;;;;;;5161274;27;20573;-82
2021/08/30 11:42:12;;;;;;;7.00;6.30;;;16.80;99.90;;;;;;5161660;27;20491;-81
2021/08/30 11:44:39;;;;;;;7.30;6.50;;;16.90;99.90;;;;;;5161173;27;20447;-81
2021/08/30 11:47:08;;;;;;;7.87;7.07;;;16.90;99.90;;;;;;5160913;27;20435;-82
2021/08/30 11:49:40;;;;;;;9.20;7.50;;;16.90;99.90;;;;;;5159957;27;20633;-83
2021/08/30 11:52:07;;;;;;;7.10;6.40;;;16.90;99.90;;;;;;5157284;27;20471;-82
2021/08/30 11:54:36;;;;;;;8.07;7.10;;;17.00;99.90;;;;;;5160622;27;20448;-82
2021/08/30 11:57:05;;;;;;;7.47;6.77;;;17.10;99.90;;;;;;5153924;27;20446;-83
2021/08/30 11:59:34;;;;;;;6.73;6.00;;;17.20;99.90;;;;;;5143773;27;20968;-83
2021/08/30 12:02:02;;;;;;;7.90;7.10;;;17.20;99.90;;;;;;5144430;27;20499;-83
2021/08/30 12:04:31;;;;;;;8.73;7.20;;;17.30;99.90;;;;;;5142271;27;20443;-83
2021/08/30 12:07:00;;;;;;;13.13;7.60;;;17.30;99.90;;;;;;5142340;27;20438;-84
2021/08/30 12:09:40;;;;;;;7.03;6.23;;;17.30;99.90;;;;;;5141384;27;20521;-83
2021/08/30 12:12:19;;;;;;;7.00;6.30;;;17.30;99.90;;;;;;5143207;27;20487;-83
2021/08/30 12:15:03;;;;;;;7.10;5.90;;;17.10;99.90;;;;;;5144483;27;20480;-84
2021/08/30 12:17:33;;;;;;;6.70;5.43;;;17.00;99.90;;;;;;5142169;27;20519;-83
2021/08/30 12:20:02;;;;;;;7.10;6.40;;;16.70;99.90;;;;;;5142083;27;20471;-83
2021/08/30 12:22:32;;;;;;;7.63;5.70;;;16.90;99.90;;;;;;5140575;27;20982;-84
2021/08/30 12:25:09;;;;;;;8.90;6.20;;;16.90;99.90;;;;;;5140135;27;20843;-84
2021/08/30 12:34:03;;;;;;;7.03;6.43;;;16.80;99.90;;;;;;5140001;27;20993;-82
2021/08/30 12:36:30;;;;;;;6.70;6.10;;;;;;;;;;5142515;27;20407;-83
2021/08/30 12:39:06;;;;;;;7.90;5.67;;;;;;;;;;5141893;27;20607;-83
2021/08/30 12:41:33;;;;;;;8.13;5.90;;;;;;;;;;5138293;27;20970;-82
2021/08/30 12:44:03;;;;;;;5.40;4.97;;;17.00;99.90;;;;;;5138971;27;20435;-82
2021/08/30 12:46:37;;;;;;;4.10;3.80;;;16.90;99.90;;;;;;5139175;27;20966;-82
2021/08/30 12:49:04;;;;;;;5.73;4.90;;;;;;;;;;5140090;27;20471;-82
2021/08/30 12:51:43;;;;;;;4.77;4.33;;;16.70;99.90;;;;;;5139053;27;21036;-83
2021/08/30 12:54:16;;;;;;;6.20;3.80;;;16.70;99.90;;;;;;5139247;27;20447;-83
2021/08/30 12:57:09;;;;;;;5.17;4.77;;;16.70;99.90;;;;;;5138766;27;20427;-83